createdAt,value
2024-03-02T00:04:12.439Z,3.30
2024-03-02T00:09:04.452Z,3.20
2024-03-02T00:13:56.325Z,3.03
2024-03-02T00:18:48.368Z,3.88
2024-03-02T00:23:40.803Z,5.18
2024-03-02T00:28:37.910Z,7.18
2024-03-02T00:33:38.698Z,2.90
2024-03-02T00:38:32.246Z,12.48
2024-03-02T00:43:36.283Z,3.90
2024-03-02T00:48:28.253Z,7.40
2024-03-02T00:53:25.875Z,4.43
2024-03-02T00:58:17.749Z,1.95
2024-03-02T01:03:09.858Z,3.20
2024-03-02T01:08:01.672Z,2.60
2024-03-02T01:12:53.675Z,1.00
2024-03-02T01:17:45.616Z,4.47
2024-03-02T01:22:38.253Z,2.75
2024-03-02T01:27:30.168Z,1.90
2024-03-02T01:32:22.170Z,1.20
2024-03-02T01:37:14.161Z,3.80
2024-03-02T01:42:06.168Z,1.50
2024-03-02T01:46:57.967Z,1.17
2024-03-02T01:51:50.115Z,1.40
2024-03-02T01:56:42.124Z,1.67
2024-03-02T02:01:34.299Z,0.85
2024-03-02T02:06:26.263Z,1.20
2024-03-02T02:11:18.468Z,1.52
2024-03-02T02:16:10.443Z,1.95
2024-03-02T02:21:02.317Z,1.83
2024-03-02T02:25:54.106Z,1.45
2024-03-02T02:30:46.090Z,1.15
2024-03-02T02:35:37.904Z,0.75
2024-03-02T02:40:32.577Z,2.33
2024-03-02T02:45:24.600Z,1.85
2024-03-02T02:50:16.745Z,1.35
2024-03-02T02:55:10.561Z,0.77
2024-03-02T03:00:18.523Z,0.57
2024-03-02T03:05:13.449Z,1.27
2024-03-02T03:10:05.809Z,1.65
2024-03-02T03:14:58.367Z,0.75
2024-03-02T03:19:51.245Z,0.60
2024-03-02T03:24:43.196Z,1.77
2024-03-02T03:29:35.123Z,0.70
2024-03-02T03:34:26.944Z,0.93
2024-03-02T03:39:19.070Z,1.42
2024-03-02T03:44:10.964Z,0.98
2024-03-02T03:49:02.872Z,1.15
2024-03-02T03:53:54.628Z,1.50
2024-03-02T03:58:46.440Z,1.45
2024-03-02T04:03:39.682Z,1.05
2024-03-02T04:08:31.560Z,1.38
2024-03-02T04:13:23.440Z,1.92
2024-03-02T04:18:15.228Z,1.10
2024-03-02T04:23:07.094Z,1.75
2024-03-02T04:27:59.456Z,1.85
2024-03-02T04:32:51.321Z,1.10
2024-03-02T04:37:43.740Z,1.88
2024-03-02T04:42:36.326Z,1.42
2024-03-02T04:47:28.288Z,1.27
2024-03-02T04:52:20.209Z,1.20
2024-03-02T04:57:12.089Z,1.10
2024-03-02T05:02:03.934Z,0.90
2024-03-02T05:06:57.868Z,1.02
2024-03-02T05:12:08.317Z,1.17
2024-03-02T05:17:00.188Z,1.20
2024-03-02T05:21:53.094Z,1.20
2024-03-02T05:26:45.071Z,1.20
2024-03-02T05:31:36.931Z,1.05
2024-03-02T05:36:28.801Z,0.70
2024-03-02T05:41:20.759Z,0.80
2024-03-02T05:46:13.096Z,1.85
2024-03-02T05:51:05.138Z,1.00
2024-03-02T05:55:57.144Z,1.27
2024-03-02T06:00:49.307Z,1.27
2024-03-02T06:05:41.978Z,2.67
2024-03-02T06:10:33.864Z,3.72
2024-03-02T06:15:25.772Z,15.73
2024-03-02T06:20:17.636Z,10.20
2024-03-02T06:25:10.023Z,15.77
2024-03-02T06:30:02.281Z,9.90
2024-03-02T06:34:54.431Z,10.63
2024-03-02T06:39:46.249Z,5.70
2024-03-02T06:44:38.120Z,6.80
2024-03-02T06:49:29.961Z,9.05
2024-03-02T06:54:21.698Z,6.45
2024-03-02T06:59:13.518Z,6.35
2024-03-02T07:04:07.581Z,3.72
2024-03-02T07:08:59.323Z,4.72
2024-03-02T07:13:51.029Z,3.55
2024-03-02T07:18:43.528Z,3.45
2024-03-02T07:23:35.520Z,3.28
2024-03-02T07:28:27.693Z,4.03
2024-03-02T07:33:19.579Z,5.97
2024-03-02T07:38:11.329Z,2.30
2024-03-02T07:43:03.205Z,3.30
2024-03-02T07:47:55.035Z,2.90
2024-03-02T07:52:47.060Z,2.17
2024-03-02T07:57:38.872Z,4.28
2024-03-02T08:02:30.639Z,3.92
2024-03-02T08:07:22.460Z,3.70
2024-03-02T08:12:14.178Z,2.78
2024-03-02T08:17:10.692Z,3.42
2024-03-02T08:22:02.776Z,3.28
2024-03-02T08:26:54.636Z,5.00
2024-03-02T08:31:46.477Z,9.10
2024-03-02T08:36:39.297Z,7.45
2024-03-02T08:41:31.280Z,18.00
2024-03-02T08:46:23.098Z,15.15
2024-03-02T08:51:14.916Z,12.10
2024-03-02T08:56:07.757Z,12.77
2024-03-02T09:00:59.746Z,13.27
2024-03-02T09:05:51.595Z,11.90
2024-03-02T09:10:43.546Z,11.75
2024-03-02T09:15:38.722Z,10.73
2024-03-02T09:20:30.700Z,12.75
2024-03-02T09:25:22.464Z,13.75
2024-03-02T09:30:15.052Z,11.40
2024-03-02T09:35:07.223Z,11.68
2024-03-02T09:39:59.115Z,11.60
2024-03-02T09:44:51.127Z,10.20
2024-03-02T09:49:42.924Z,8.63
2024-03-02T09:54:34.804Z,8.13
2024-03-02T09:59:26.733Z,7.80
2024-03-02T10:04:19.010Z,7.63
2024-03-02T10:09:10.786Z,8.70
2024-03-02T10:14:10.182Z,8.13
2024-03-02T10:19:19.893Z,7.85
2024-03-02T10:24:11.778Z,7.35
2024-03-02T10:29:03.574Z,7.00
2024-03-02T10:33:56.428Z,8.43
2024-03-02T10:38:49.650Z,6.85
2024-03-02T10:43:41.555Z,7.10
2024-03-02T10:48:36.803Z,7.85
2024-03-02T10:53:28.566Z,6.55
2024-03-02T10:58:21.300Z,6.53
2024-03-02T11:03:14.984Z,6.82
2024-03-02T11:08:15.579Z,7.72
2024-03-02T11:13:10.902Z,6.57
2024-03-02T11:18:06.290Z,5.72
2024-03-02T11:22:58.033Z,6.43
2024-03-02T11:27:50.868Z,5.47
2024-03-02T11:32:42.631Z,7.22
2024-03-02T11:37:36.303Z,6.15
2024-03-02T11:42:28.073Z,5.78
2024-03-02T11:47:19.984Z,5.82
2024-03-02T11:52:13.225Z,5.60
2024-03-02T11:57:05.285Z,5.32
2024-03-02T12:01:58.512Z,7.22
2024-03-02T12:07:01.881Z,3.95
2024-03-02T12:12:10.529Z,9.27
2024-03-02T12:17:02.705Z,5.85
2024-03-02T12:21:55.510Z,7.63
2024-03-02T12:26:49.208Z,6.13
2024-03-02T12:31:41.040Z,6.20
2024-03-02T12:36:39.417Z,5.57
2024-03-02T12:41:32.846Z,4.80
2024-03-02T12:46:25.373Z,6.10
2024-03-02T12:51:17.191Z,12.85
2024-03-02T12:56:09.651Z,5.25
2024-03-02T13:01:10.730Z,4.70
2024-03-02T13:06:02.767Z,4.43
2024-03-02T13:10:55.463Z,4.63
2024-03-02T13:15:47.368Z,3.58
2024-03-02T13:20:40.203Z,3.55
2024-03-02T13:25:33.699Z,3.00
2024-03-02T13:30:25.608Z,3.10
2024-03-02T13:35:17.380Z,2.40
2024-03-02T13:40:14.287Z,3.15
2024-03-02T13:45:07.606Z,3.45
2024-03-02T13:49:59.427Z,2.30
2024-03-02T13:54:53.525Z,2.22
2024-03-02T13:59:45.548Z,1.75
2024-03-02T14:04:38.060Z,2.45
2024-03-02T14:09:31.018Z,1.80
2024-03-02T14:14:22.910Z,1.95
2024-03-02T14:19:14.716Z,2.05
2024-03-02T14:24:08.260Z,2.30
2024-03-02T14:29:02.443Z,1.70
2024-03-02T14:33:54.584Z,1.83
2024-03-02T14:38:47.024Z,1.73
2024-03-02T14:43:38.781Z,1.65
2024-03-02T14:48:31.115Z,1.48
2024-03-02T14:53:22.827Z,1.83
2024-03-02T14:58:14.568Z,1.20
2024-03-02T15:03:09.672Z,1.52
2024-03-02T15:08:03.495Z,1.45
2024-03-02T15:12:55.339Z,1.10
2024-03-02T15:17:47.114Z,1.38
2024-03-02T15:22:38.834Z,1.10
2024-03-02T15:27:30.709Z,2.47
2024-03-02T15:32:22.555Z,0.93
2024-03-02T15:37:14.505Z,1.38
2024-03-02T15:42:06.646Z,1.00
2024-03-02T15:46:59.689Z,1.42
2024-03-02T15:51:51.879Z,0.80
2024-03-02T15:56:43.685Z,2.45
2024-03-02T16:01:35.607Z,0.68
2024-03-02T16:06:27.528Z,0.85
2024-03-02T16:11:19.388Z,1.50
2024-03-02T16:16:12.729Z,0.95
2024-03-02T16:21:05.288Z,2.72
2024-03-02T16:25:57.061Z,25.92
2024-03-02T16:30:48.984Z,14.10
2024-03-02T16:35:40.849Z,10.95
2024-03-02T16:40:32.948Z,11.98
2024-03-02T16:45:24.867Z,20.08
2024-03-02T16:50:17.832Z,15.63
2024-03-02T16:55:10.080Z,14.27
2024-03-02T17:00:01.871Z,12.32
2024-03-02T17:04:54.452Z,22.65
2024-03-02T17:09:46.435Z,13.50
2024-03-02T17:14:38.214Z,19.42
2024-03-02T17:19:29.982Z,17.05
2024-03-02T17:24:21.807Z,10.82
2024-03-02T17:29:13.573Z,13.48
2024-03-02T17:34:05.385Z,16.67
2024-03-02T17:38:57.613Z,9.13
2024-03-02T17:43:49.442Z,10.93
2024-03-02T17:48:41.369Z,7.43
2024-03-02T17:53:33.339Z,6.45
2024-03-02T17:58:25.031Z,6.40
2024-03-02T18:03:16.775Z,8.52
2024-03-02T18:08:08.492Z,6.47
2024-03-02T18:13:00.321Z,5.22
2024-03-02T18:17:52.105Z,10.40
2024-03-02T18:22:43.764Z,5.38
2024-03-02T18:27:37.045Z,3.58
2024-03-02T18:32:28.903Z,5.50
2024-03-02T18:37:23.207Z,3.00
2024-03-02T18:42:16.330Z,3.70
2024-03-02T18:47:08.538Z,2.67
2024-03-02T18:52:00.354Z,3.80
2024-03-02T18:56:52.423Z,3.47
2024-03-02T19:01:44.297Z,3.75
2024-03-02T19:06:36.174Z,2.40
2024-03-02T19:11:28.044Z,3.83
2024-03-02T19:16:19.984Z,3.60
2024-03-02T19:21:11.857Z,3.17
2024-03-02T19:26:05.021Z,3.05
2024-03-02T19:30:57.185Z,2.50
2024-03-02T19:35:49.033Z,4.03
2024-03-02T19:40:41.089Z,3.20
2024-03-02T19:45:32.893Z,3.55
2024-03-02T19:50:24.704Z,1.90
2024-03-02T19:55:18.086Z,2.25
2024-03-02T20:00:10.966Z,2.15
2024-03-02T20:05:02.691Z,3.60
2024-03-02T20:09:55.277Z,2.83
2024-03-02T20:14:47.064Z,15.43
2024-03-02T20:19:41.974Z,8.02
2024-03-02T20:24:33.721Z,5.43
2024-03-02T20:29:25.482Z,3.55
2024-03-02T20:34:19.183Z,2.10
2024-03-02T20:39:11.180Z,2.60
2024-03-02T20:44:04.980Z,6.07
2024-03-02T20:48:58.317Z,3.67
2024-03-02T20:53:50.171Z,2.03
2024-03-02T20:58:42.408Z,1.90
2024-03-02T21:03:34.451Z,2.65
2024-03-02T21:08:26.148Z,3.63
2024-03-02T21:13:18.189Z,9.40
2024-03-02T21:18:10.039Z,6.90
2024-03-02T21:23:01.794Z,7.53
2024-03-02T21:27:53.560Z,9.00
2024-03-02T21:32:45.743Z,7.35
2024-03-02T21:37:37.416Z,10.57
2024-03-02T21:42:29.152Z,8.82
2024-03-02T21:47:20.953Z,8.05
2024-03-02T21:52:12.979Z,10.20
2024-03-02T21:57:07.311Z,8.05
2024-03-02T22:01:59.190Z,8.80
2024-03-02T22:06:51.028Z,9.30
2024-03-02T22:11:42.726Z,7.35
2024-03-02T22:16:37.030Z,7.78
2024-03-02T22:21:28.683Z,8.57
2024-03-02T22:26:20.500Z,7.60
2024-03-02T22:31:12.344Z,6.32
2024-03-02T22:36:06.977Z,6.93
2024-03-02T22:40:58.672Z,5.45
2024-03-02T22:45:51.780Z,6.30
2024-03-02T22:50:43.680Z,6.00
2024-03-02T22:55:35.424Z,7.95
2024-03-02T23:00:37.667Z,5.43
2024-03-02T23:05:30.667Z,6.28
2024-03-02T23:10:22.420Z,6.22
2024-03-02T23:15:14.132Z,5.75
2024-03-02T23:20:06.849Z,4.82
2024-03-02T23:24:58.537Z,4.78
2024-03-02T23:29:50.232Z,6.25
2024-03-02T23:34:41.911Z,4.68
2024-03-02T23:39:51.965Z,5.07
2024-03-02T23:44:43.647Z,5.43
2024-03-02T23:49:35.337Z,5.65
2024-03-02T23:54:27.089Z,3.67
2024-03-02T23:59:19.291Z,4.43
